createdAt,value
2018-07-26T00:01:54.940Z,21.00
2018-07-26T00:04:26.720Z,21.00
2018-07-26T00:06:58.462Z,20.90
2018-07-26T00:09:30.104Z,20.90
2018-07-26T00:12:01.846Z,20.90
2018-07-26T00:14:33.756Z,20.80
2018-07-26T00:17:05.642Z,20.80
2018-07-26T00:19:37.670Z,20.90
2018-07-26T00:22:09.902Z,20.90
2018-07-26T00:24:41.874Z,20.80
2018-07-26T00:27:13.541Z,20.80
2018-07-26T00:29:45.281Z,20.80
2018-07-26T00:32:16.969Z,20.80
2018-07-26T00:34:48.610Z,20.80
2018-07-26T00:37:20.460Z,20.70
2018-07-26T00:39:52.216Z,20.70
2018-07-26T00:42:23.891Z,20.70
2018-07-26T00:44:55.643Z,20.60
2018-07-26T00:47:27.495Z,20.60
2018-07-26T00:49:59.304Z,20.60
2018-07-26T00:52:31.165Z,20.70
2018-07-26T00:55:02.907Z,20.70
2018-07-26T00:57:34.784Z,20.70
2018-07-26T01:00:06.925Z,20.60
2018-07-26T01:02:38.692Z,20.50
2018-07-26T01:05:10.445Z,20.30
2018-07-26T01:07:42.172Z,20.00
2018-07-26T01:10:13.965Z,19.70
2018-07-26T01:12:45.697Z,19.60
2018-07-26T01:15:17.608Z,19.50
2018-07-26T01:17:49.226Z,19.50
2018-07-26T01:20:21.101Z,19.40
2018-07-26T01:22:53.041Z,19.30
2018-07-26T01:25:24.949Z,19.30
2018-07-26T01:27:56.987Z,19.20
2018-07-26T01:30:28.756Z,19.20
2018-07-26T01:33:00.487Z,19.30
2018-07-26T01:35:32.256Z,19.30
2018-07-26T01:38:03.929Z,19.40
2018-07-26T01:40:35.861Z,19.40
2018-07-26T01:43:46.022Z,19.40
2018-07-26T01:46:18.473Z,19.30
2018-07-26T01:48:50.230Z,19.20
2018-07-26T01:51:22.013Z,19.20
2018-07-26T01:53:53.988Z,19.20
2018-07-26T01:56:25.652Z,19.20
2018-07-26T01:58:57.422Z,19.20
2018-07-26T02:01:29.261Z,19.20
2018-07-26T02:04:01.065Z,19.30
2018-07-26T02:06:32.740Z,19.30
2018-07-26T02:09:05.768Z,19.30
2018-07-26T02:11:37.625Z,19.30
2018-07-26T02:14:14.476Z,19.30
2018-07-26T02:16:46.285Z,19.20
2018-07-26T02:19:18.236Z,19.20
2018-07-26T02:21:50.260Z,19.20
2018-07-26T02:24:21.960Z,19.20
2018-07-26T02:26:53.700Z,19.10
2018-07-26T02:29:25.384Z,19.10
2018-07-26T02:31:57.154Z,19.10
2018-07-26T02:34:28.806Z,19.10
2018-07-26T02:37:00.639Z,19.00
2018-07-26T02:39:32.334Z,19.00
2018-07-26T02:42:03.978Z,19.00
2018-07-26T02:44:35.745Z,19.00
2018-07-26T02:47:07.611Z,19.00
2018-07-26T02:49:39.256Z,19.00
2018-07-26T02:52:11.186Z,19.00
2018-07-26T02:54:42.986Z,19.00
2018-07-26T02:57:14.863Z,19.00
2018-07-26T02:59:46.586Z,19.00
2018-07-26T03:02:18.436Z,19.10
2018-07-26T03:04:50.222Z,19.00
2018-07-26T03:07:21.874Z,19.00
2018-07-26T03:09:53.609Z,19.00
2018-07-26T03:12:25.517Z,19.10
2018-07-26T03:14:57.277Z,19.10
2018-07-26T03:17:29.010Z,19.10
2018-07-26T03:20:00.712Z,19.10
2018-07-26T03:22:32.633Z,19.10
2018-07-26T03:25:04.386Z,19.10
2018-07-26T03:27:37.066Z,19.10
2018-07-26T03:30:09.453Z,19.00
2018-07-26T03:32:41.198Z,19.00
2018-07-26T03:35:12.928Z,19.00
2018-07-26T03:37:44.742Z,19.00
2018-07-26T03:40:16.378Z,18.90
2018-07-26T03:42:48.066Z,19.00
2018-07-26T03:45:19.920Z,19.00
2018-07-26T03:47:51.653Z,19.00
2018-07-26T03:50:23.485Z,19.00
2018-07-26T03:52:55.158Z,19.00
2018-07-26T03:55:26.824Z,19.00
2018-07-26T03:57:58.764Z,19.00
2018-07-26T04:00:30.558Z,19.00
2018-07-26T04:03:02.539Z,19.00
2018-07-26T04:05:34.291Z,19.00
2018-07-26T04:08:06.477Z,19.00
2018-07-26T04:10:38.274Z,18.90
2018-07-26T04:13:09.957Z,18.90
2018-07-26T04:15:41.720Z,18.90
2018-07-26T04:18:13.457Z,18.80
2018-07-26T04:20:45.314Z,18.70
2018-07-26T04:23:17.123Z,18.60
2018-07-26T04:25:48.845Z,18.60
2018-07-26T04:28:20.504Z,18.60
2018-07-26T04:30:52.268Z,18.60
2018-07-26T04:33:24.013Z,18.50
2018-07-26T04:35:55.699Z,18.50
2018-07-26T04:38:27.455Z,18.50
2018-07-26T04:40:59.281Z,18.60
2018-07-26T04:43:31.193Z,18.50
2018-07-26T04:46:02.827Z,18.70
2018-07-26T04:48:34.998Z,18.80
2018-07-26T04:51:07.139Z,18.80
2018-07-26T04:53:38.922Z,18.90
2018-07-26T04:56:10.897Z,18.90
2018-07-26T04:58:42.648Z,19.00
2018-07-26T05:01:14.308Z,19.10
2018-07-26T05:03:46.345Z,19.20
2018-07-26T05:06:18.257Z,19.20
2018-07-26T05:08:49.889Z,19.20
2018-07-26T05:11:21.641Z,19.30
2018-07-26T05:13:53.365Z,19.40
2018-07-26T05:16:25.186Z,19.40
2018-07-26T05:18:56.925Z,19.50
2018-07-26T05:21:28.704Z,19.50
2018-07-26T05:24:00.565Z,19.60
2018-07-26T05:26:32.298Z,19.70
2018-07-26T05:29:04.185Z,19.80
2018-07-26T05:31:35.920Z,19.90
2018-07-26T05:34:07.675Z,20.00
2018-07-26T05:36:39.514Z,20.10
2018-07-26T05:39:12.688Z,20.10
2018-07-26T05:41:44.495Z,20.20
2018-07-26T05:44:16.421Z,20.30
2018-07-26T05:46:48.234Z,20.40
2018-07-26T05:49:19.870Z,20.50
2018-07-26T05:51:51.607Z,20.60
2018-07-26T05:54:23.265Z,20.60
2018-07-26T05:56:55.145Z,20.70
2018-07-26T05:59:26.887Z,20.80
2018-07-26T06:01:58.745Z,20.80
2018-07-26T06:04:30.753Z,20.90
2018-07-26T06:07:02.497Z,21.00
2018-07-26T06:09:34.222Z,21.10
2018-07-26T06:12:06.049Z,21.20
2018-07-26T06:14:37.947Z,21.30
2018-07-26T06:17:09.873Z,21.40
2018-07-26T06:19:41.589Z,21.50
2018-07-26T06:22:13.266Z,21.60
2018-07-26T06:24:45.085Z,21.70
2018-07-26T06:27:16.892Z,21.80
2018-07-26T06:29:48.597Z,21.90
2018-07-26T06:32:20.281Z,22.10
2018-07-26T06:34:52.044Z,22.20
2018-07-26T06:37:23.872Z,22.40
2018-07-26T06:39:55.666Z,22.50
2018-07-26T06:42:27.310Z,22.60
2018-07-26T06:44:59.149Z,22.80
2018-07-26T06:47:31.022Z,22.90
2018-07-26T06:50:02.789Z,23.00
2018-07-26T06:52:34.461Z,23.10
2018-07-26T06:55:06.429Z,23.30
2018-07-26T06:57:37.986Z,23.40
2018-07-26T07:00:11.386Z,23.50
2018-07-26T07:02:43.229Z,23.70
2018-07-26T07:05:15.165Z,23.80
2018-07-26T07:07:46.942Z,24.00
2018-07-26T07:10:18.728Z,24.10
2018-07-26T07:12:50.649Z,24.20
2018-07-26T07:15:22.314Z,24.40
2018-07-26T07:17:54.095Z,24.50
2018-07-26T07:20:26.090Z,24.60
2018-07-26T07:22:57.789Z,24.70
2018-07-26T07:25:29.565Z,24.90
2018-07-26T07:28:01.296Z,25.00
2018-07-26T07:30:33.170Z,25.20
2018-07-26T07:33:04.989Z,25.30
2018-07-26T07:35:36.713Z,25.40
2018-07-26T07:38:08.570Z,25.50
2018-07-26T07:40:40.358Z,25.60
2018-07-26T07:43:12.093Z,25.70
2018-07-26T07:45:44.025Z,25.80
2018-07-26T07:48:15.996Z,25.90
2018-07-26T07:50:47.701Z,26.00
2018-07-26T07:55:50.469Z,26.20
2018-07-26T07:58:22.210Z,26.30
2018-07-26T08:00:54.072Z,26.40
2018-07-26T08:03:26.089Z,26.50
2018-07-26T08:05:57.810Z,26.60
2018-07-26T08:08:29.544Z,26.70
2018-07-26T08:11:01.321Z,26.80
2018-07-26T08:13:34.095Z,26.80
2018-07-26T08:16:06.107Z,26.90
2018-07-26T08:18:37.836Z,27.00
2018-07-26T08:21:09.705Z,27.10
2018-07-26T08:23:41.434Z,27.20
2018-07-26T08:26:13.198Z,27.30
2018-07-26T08:28:44.950Z,27.40
2018-07-26T08:31:16.633Z,27.40
2018-07-26T08:33:48.398Z,27.50
2018-07-26T08:36:20.286Z,27.60
2018-07-26T08:38:51.947Z,27.70
2018-07-26T08:41:23.783Z,27.80
2018-07-26T08:43:55.616Z,27.80
2018-07-26T08:46:27.418Z,27.90
2018-07-26T08:48:59.177Z,27.90
2018-07-26T08:51:30.938Z,28.00
2018-07-26T08:56:34.109Z,28.10
2018-07-26T08:59:06.009Z,28.10
2018-07-26T09:01:37.726Z,28.20
2018-07-26T09:04:09.505Z,28.20
2018-07-26T09:06:41.238Z,28.30
2018-07-26T09:09:14.207Z,28.30
2018-07-26T09:11:46.036Z,28.40
2018-07-26T09:14:17.662Z,28.40
2018-07-26T09:16:49.414Z,28.50
2018-07-26T09:19:21.154Z,28.60
2018-07-26T09:21:52.965Z,28.80
2018-07-26T09:24:24.703Z,28.90
2018-07-26T09:26:56.444Z,29.00
2018-07-26T09:29:28.221Z,29.00
2018-07-26T09:31:59.946Z,29.10
2018-07-26T09:34:31.815Z,29.10
2018-07-26T09:37:03.623Z,29.00
2018-07-26T09:39:35.353Z,29.00
2018-07-26T09:42:07.294Z,29.10
2018-07-26T09:44:39.116Z,29.20
2018-07-26T09:47:11.051Z,29.30
2018-07-26T09:49:42.809Z,29.40
2018-07-26T09:52:14.584Z,29.50
2018-07-26T09:54:46.469Z,29.50
2018-07-26T09:57:18.169Z,29.60
2018-07-26T09:59:50.122Z,29.70
2018-07-26T10:02:21.942Z,29.70
2018-07-26T10:04:53.882Z,29.80
2018-07-26T10:07:25.618Z,29.80
2018-07-26T10:09:57.464Z,29.80
2018-07-26T10:12:29.132Z,29.70
2018-07-26T10:15:00.852Z,29.60
2018-07-26T10:17:32.735Z,29.50
2018-07-26T10:20:04.507Z,29.50
2018-07-26T10:22:36.148Z,29.70
2018-07-26T10:25:08.118Z,29.70
2018-07-26T10:27:39.609Z,29.70
2018-07-26T10:30:11.461Z,29.70
2018-07-26T10:32:43.181Z,29.60
2018-07-26T10:35:14.979Z,29.60
2018-07-26T10:37:46.627Z,29.70
2018-07-26T10:40:18.361Z,29.80
2018-07-26T10:42:50.253Z,29.90
2018-07-26T10:45:21.987Z,30.10
2018-07-26T10:47:53.765Z,30.20
2018-07-26T10:50:25.597Z,30.30
2018-07-26T10:52:57.385Z,30.40
2018-07-26T10:55:29.249Z,30.50
2018-07-26T10:58:00.931Z,30.50
2018-07-26T11:00:32.548Z,30.60
2018-07-26T11:03:04.217Z,30.70
2018-07-26T11:05:36.059Z,30.80
2018-07-26T11:08:07.893Z,30.90
2018-07-26T11:10:39.703Z,31.00
2018-07-26T11:13:11.635Z,31.00
2018-07-26T11:15:43.445Z,31.00
2018-07-26T11:18:15.171Z,30.90
2018-07-26T11:20:46.932Z,30.70
2018-07-26T11:23:18.671Z,30.60
2018-07-26T11:25:50.340Z,30.40
2018-07-26T11:28:22.195Z,30.20
2018-07-26T11:30:54.150Z,30.20
2018-07-26T11:33:25.842Z,30.10
2018-07-26T11:35:57.621Z,30.10
2018-07-26T11:38:29.533Z,30.30
2018-07-26T11:41:01.492Z,30.50
2018-07-26T11:43:33.313Z,30.60
2018-07-26T11:48:36.152Z,30.70
2018-07-26T11:51:07.857Z,30.90
2018-07-26T11:53:39.485Z,30.90
2018-07-26T11:56:11.149Z,30.90
2018-07-26T11:58:42.993Z,30.80
2018-07-26T12:01:14.857Z,30.80
2018-07-26T12:03:46.524Z,30.80
2018-07-26T12:06:18.367Z,30.70
2018-07-26T12:08:50.228Z,30.70
2018-07-26T12:11:21.899Z,30.70
2018-07-26T12:13:53.679Z,30.80
2018-07-26T12:16:25.499Z,30.90
2018-07-26T12:18:57.174Z,30.90
2018-07-26T12:21:28.842Z,31.00
2018-07-26T12:24:00.697Z,31.10
2018-07-26T12:26:32.361Z,31.10
2018-07-26T12:29:04.105Z,31.10
2018-07-26T12:31:35.874Z,31.20
2018-07-26T12:34:07.557Z,31.30
2018-07-26T12:36:39.469Z,31.50
2018-07-26T12:39:13.395Z,31.50
2018-07-26T12:41:45.342Z,31.60
2018-07-26T12:44:17.156Z,31.70
2018-07-26T12:46:48.916Z,31.70
2018-07-26T12:49:20.649Z,31.80
2018-07-26T12:51:52.570Z,31.80
2018-07-26T12:54:24.450Z,31.80
2018-07-26T12:56:56.216Z,31.80
2018-07-26T12:59:27.994Z,31.80
2018-07-26T13:01:59.953Z,31.80
2018-07-26T13:04:31.721Z,32.00
2018-07-26T13:07:03.737Z,32.10
2018-07-26T13:09:35.439Z,32.30
2018-07-26T13:12:07.377Z,32.30
2018-07-26T13:14:39.302Z,32.20
2018-07-26T13:17:11.039Z,32.00
2018-07-26T13:19:42.761Z,31.80
2018-07-26T13:22:14.512Z,31.60
2018-07-26T13:24:46.202Z,31.30
2018-07-26T13:27:17.993Z,31.00
2018-07-26T13:29:49.935Z,30.90
2018-07-26T13:32:21.772Z,30.90
2018-07-26T13:34:53.637Z,31.00
2018-07-26T13:37:25.469Z,31.10
2018-07-26T13:39:57.191Z,31.30
2018-07-26T13:42:28.921Z,31.40
2018-07-26T13:45:00.802Z,31.50
2018-07-26T13:47:32.426Z,31.60
2018-07-26T13:50:04.283Z,31.70
2018-07-26T13:52:36.181Z,31.80
2018-07-26T13:55:08.150Z,31.80
2018-07-26T13:57:39.579Z,31.80
2018-07-26T14:00:12.854Z,31.80
2018-07-26T14:02:44.906Z,31.90
2018-07-26T14:05:16.668Z,32.00
2018-07-26T14:07:48.578Z,32.10
2018-07-26T14:10:20.214Z,32.10
2018-07-26T14:12:52.150Z,32.10
2018-07-26T14:15:23.950Z,32.10
2018-07-26T14:17:55.794Z,32.10
2018-07-26T14:20:27.463Z,32.00
2018-07-26T14:22:59.387Z,31.90
2018-07-26T14:25:31.179Z,31.70
2018-07-26T14:28:02.936Z,31.60
2018-07-26T14:30:34.774Z,31.40
2018-07-26T14:33:07.864Z,31.40
2018-07-26T14:35:39.746Z,31.40
2018-07-26T14:38:11.646Z,31.40
2018-07-26T14:40:43.432Z,31.40
2018-07-26T14:43:15.241Z,31.30
2018-07-26T14:45:47.083Z,31.20
2018-07-26T14:48:18.924Z,31.10
2018-07-26T14:50:50.784Z,31.00
2018-07-26T14:53:22.449Z,31.00
2018-07-26T14:55:54.321Z,30.90
2018-07-26T14:58:26.057Z,30.90
2018-07-26T15:00:57.867Z,30.90
2018-07-26T15:03:29.733Z,31.00
2018-07-26T15:06:01.576Z,31.10
2018-07-26T15:08:33.298Z,31.20
2018-07-26T15:11:05.098Z,31.30
2018-07-26T15:13:36.740Z,31.40
2018-07-26T15:16:08.681Z,31.40
2018-07-26T15:18:40.469Z,31.50
2018-07-26T15:21:12.488Z,31.50
2018-07-26T15:23:44.290Z,31.50
2018-07-26T15:26:16.205Z,31.60
2018-07-26T15:28:48.001Z,31.60
2018-07-26T15:31:19.776Z,31.60
2018-07-26T15:33:51.509Z,31.50
2018-07-26T15:36:23.286Z,31.40
2018-07-26T15:38:55.021Z,31.40
2018-07-26T15:41:26.889Z,31.40
2018-07-26T15:43:58.659Z,31.40
2018-07-26T15:46:30.405Z,31.40
2018-07-26T15:49:02.149Z,31.40
2018-07-26T15:51:34.005Z,31.40
2018-07-26T15:54:05.706Z,31.40
2018-07-26T15:56:37.413Z,31.40
2018-07-26T15:59:09.124Z,31.30
2018-07-26T16:01:41.008Z,31.30
2018-07-26T16:04:12.837Z,31.10
2018-07-26T16:06:44.674Z,31.10
2018-07-26T16:09:16.452Z,31.00
2018-07-26T16:11:48.328Z,31.00
2018-07-26T16:14:20.157Z,31.00
2018-07-26T16:16:51.834Z,31.00
2018-07-26T16:19:23.606Z,31.10
2018-07-26T16:21:55.395Z,31.10
2018-07-26T16:24:27.118Z,31.00
2018-07-26T16:26:59.078Z,31.00
2018-07-26T16:29:30.966Z,31.10
2018-07-26T16:32:02.693Z,31.10
2018-07-26T16:34:34.435Z,31.10
2018-07-26T16:37:06.137Z,31.00
2018-07-26T16:39:38.002Z,31.00
2018-07-26T16:42:09.749Z,31.00
2018-07-26T16:44:41.581Z,30.90
2018-07-26T16:47:13.284Z,30.90
2018-07-26T16:49:44.910Z,30.90
2018-07-26T16:52:16.846Z,30.90
2018-07-26T16:54:48.862Z,30.90
2018-07-26T16:57:20.600Z,30.90
2018-07-26T16:59:52.457Z,30.90
2018-07-26T17:02:24.317Z,30.90
2018-07-26T17:04:56.158Z,30.90
2018-07-26T17:07:27.944Z,30.90
2018-07-26T17:09:59.725Z,30.80
2018-07-26T17:12:31.587Z,30.70
2018-07-26T17:15:03.399Z,30.70
2018-07-26T17:17:35.166Z,30.70
2018-07-26T17:20:08.344Z,30.70
2018-07-26T17:22:40.315Z,30.60
2018-07-26T17:25:12.018Z,30.60
2018-07-26T17:27:43.625Z,30.60
2018-07-26T17:30:15.411Z,30.50
2018-07-26T17:32:47.299Z,30.50
2018-07-26T17:35:19.201Z,30.40
2018-07-26T17:37:51.315Z,30.40
2018-07-26T17:40:23.128Z,30.40
2018-07-26T17:42:54.770Z,30.40
2018-07-26T17:45:26.597Z,30.20
2018-07-26T17:47:58.413Z,30.20
2018-07-26T17:50:30.282Z,30.20
2018-07-26T17:53:02.082Z,30.10
2018-07-26T17:55:33.916Z,30.00
2018-07-26T17:58:05.762Z,29.90
2018-07-26T18:00:37.729Z,29.90
2018-07-26T18:03:09.491Z,29.80
2018-07-26T18:05:41.359Z,29.80
2018-07-26T18:08:13.110Z,29.70
2018-07-26T18:10:44.869Z,29.70
2018-07-26T18:13:16.745Z,29.60
2018-07-26T18:15:48.478Z,29.50
2018-07-26T18:18:20.253Z,29.50
2018-07-26T18:20:52.013Z,29.40
2018-07-26T18:23:23.864Z,29.30
2018-07-26T18:25:55.637Z,29.20
2018-07-26T18:28:27.297Z,29.20
2018-07-26T18:30:59.134Z,29.20
2018-07-26T18:33:30.915Z,29.10
2018-07-26T18:36:02.784Z,29.00
2018-07-26T18:38:34.505Z,29.00
2018-07-26T18:41:06.541Z,28.90
2018-07-26T18:43:38.489Z,28.80
2018-07-26T18:46:10.415Z,28.70
2018-07-26T18:48:42.248Z,28.60
2018-07-26T18:51:14.279Z,28.50
2018-07-26T18:53:45.896Z,28.40
2018-07-26T18:56:17.771Z,28.30
2018-07-26T18:58:49.608Z,28.10
2018-07-26T19:01:21.369Z,28.00
2018-07-26T19:03:53.181Z,27.90
2018-07-26T19:06:25.020Z,27.80
2018-07-26T19:08:56.942Z,27.70
2018-07-26T19:11:28.739Z,27.70
2018-07-26T19:14:00.596Z,27.60
2018-07-26T19:16:32.475Z,27.50
2018-07-26T19:19:04.219Z,27.40
2018-07-26T19:21:36.077Z,27.40
2018-07-26T19:24:07.832Z,27.30
2018-07-26T19:26:39.586Z,27.30
2018-07-26T19:29:11.329Z,27.20
2018-07-26T19:31:43.100Z,27.20
2018-07-26T19:34:14.965Z,27.20
2018-07-26T19:36:46.701Z,27.20
2018-07-26T19:39:18.373Z,27.10
2018-07-26T19:41:50.145Z,27.10
2018-07-26T19:44:21.982Z,27.10
2018-07-26T19:46:53.656Z,27.00
2018-07-26T19:49:25.316Z,27.00
2018-07-26T19:51:57.154Z,27.00
2018-07-26T19:54:28.925Z,27.00
2018-07-26T19:57:00.805Z,27.00
2018-07-26T19:59:32.637Z,26.90
2018-07-26T20:02:04.601Z,26.90
2018-07-26T20:04:36.454Z,26.90
2018-07-26T20:07:08.347Z,26.90
2018-07-26T20:09:40.077Z,26.90
2018-07-26T20:12:11.884Z,26.80
2018-07-26T20:14:43.625Z,26.80
2018-07-26T20:17:15.558Z,26.70
2018-07-26T20:19:47.476Z,26.70
2018-07-26T20:24:50.429Z,26.60
2018-07-26T20:27:22.237Z,26.50
2018-07-26T20:29:53.874Z,26.50
2018-07-26T20:32:25.761Z,26.40
2018-07-26T20:34:57.549Z,26.40
2018-07-26T20:37:29.452Z,26.40
2018-07-26T20:40:01.290Z,26.40
2018-07-26T20:42:33.055Z,26.40
2018-07-26T20:45:04.815Z,26.40
2018-07-26T20:47:36.830Z,26.40
2018-07-26T20:50:09.457Z,26.30
2018-07-26T20:52:41.131Z,26.40
2018-07-26T20:55:13.012Z,26.40
2018-07-26T20:57:44.757Z,26.40
2018-07-26T21:00:16.409Z,26.40
2018-07-26T21:02:48.144Z,26.40
2018-07-26T21:05:19.931Z,26.40
2018-07-26T21:07:51.953Z,26.40
2018-07-26T21:10:23.790Z,26.30
2018-07-26T21:12:55.714Z,26.30
2018-07-26T21:15:27.501Z,26.30
2018-07-26T21:17:59.181Z,26.20
2018-07-26T21:20:31.093Z,26.20
2018-07-26T21:23:02.830Z,26.20
2018-07-26T21:25:34.634Z,26.20
2018-07-26T21:28:06.551Z,26.20
2018-07-26T21:30:38.411Z,26.10
2018-07-26T21:33:10.202Z,26.10
2018-07-26T21:35:41.858Z,26.00
2018-07-26T21:38:13.687Z,26.00
2018-07-26T21:40:45.397Z,25.90
2018-07-26T21:43:17.592Z,25.90
2018-07-26T21:45:49.406Z,25.90
2018-07-26T21:48:21.435Z,25.80
2018-07-26T21:50:53.301Z,25.80
2018-07-26T21:53:25.119Z,25.80
2018-07-26T21:55:56.953Z,25.70
2018-07-26T21:58:28.785Z,25.70
2018-07-26T22:01:00.755Z,25.70
2018-07-26T22:03:32.476Z,25.60
2018-07-26T22:06:04.321Z,25.60
2018-07-26T22:11:07.289Z,25.50
2018-07-26T22:13:39.234Z,25.50
2018-07-26T22:16:11.051Z,25.40
2018-07-26T22:18:43.002Z,25.30
2018-07-26T22:21:14.630Z,25.30
2018-07-26T22:23:46.481Z,25.20
2018-07-26T22:26:18.389Z,25.20
2018-07-26T22:28:50.159Z,25.10
2018-07-26T22:31:22.014Z,25.00
2018-07-26T22:33:53.768Z,24.90
2018-07-26T22:36:25.561Z,24.80
2018-07-26T22:38:57.389Z,24.70
2018-07-26T22:41:29.082Z,24.70
2018-07-26T22:44:00.864Z,24.60
2018-07-26T22:46:32.768Z,24.60
2018-07-26T22:49:04.389Z,24.50
2018-07-26T22:51:36.184Z,24.50
2018-07-26T22:54:08.150Z,24.40
2018-07-26T22:56:39.873Z,24.30
2018-07-26T22:59:11.532Z,24.20
2018-07-26T23:01:43.320Z,24.10
2018-07-26T23:04:15.080Z,24.00
2018-07-26T23:06:46.998Z,23.90
2018-07-26T23:09:18.847Z,23.80
2018-07-26T23:11:50.645Z,23.80
2018-07-26T23:14:22.278Z,23.80
2018-07-26T23:16:54.032Z,23.70
2018-07-26T23:19:25.785Z,23.70
2018-07-26T23:21:57.465Z,23.50
2018-07-26T23:24:29.303Z,23.40
2018-07-26T23:27:01.115Z,23.20
2018-07-26T23:29:32.727Z,23.00
2018-07-26T23:32:04.406Z,23.00
2018-07-26T23:34:36.133Z,22.90
2018-07-26T23:37:07.809Z,22.90
2018-07-26T23:39:39.577Z,22.90
2018-07-26T23:42:11.507Z,22.80
2018-07-26T23:44:43.507Z,22.70
2018-07-26T23:47:15.149Z,22.70
2018-07-26T23:49:46.993Z,22.60
2018-07-26T23:52:18.649Z,22.50
2018-07-26T23:54:50.452Z,22.50
2018-07-26T23:57:22.264Z,22.40
2018-07-26T23:59:53.961Z,22.40
